createdAt,value
2023-01-17T00:02:02.293Z,83.57
2023-01-17T00:04:48.089Z,83.29
2023-01-17T00:07:35.756Z,83.20
2023-01-17T00:10:07.464Z,83.19
2023-01-17T00:12:34.829Z,83.66
2023-01-17T00:15:02.159Z,83.28
2023-01-17T00:17:29.955Z,82.94
2023-01-17T00:20:15.985Z,83.16
2023-01-17T00:23:03.124Z,83.46
2023-01-17T00:25:58.916Z,83.07
2023-01-17T00:28:26.778Z,82.92
2023-01-17T00:30:53.986Z,82.73
2023-01-17T00:33:22.139Z,83.11
2023-01-17T00:35:48.878Z,82.74
2023-01-17T00:38:18.596Z,82.85
2023-01-17T00:40:46.447Z,83.23
2023-01-17T00:43:33.230Z,82.79
2023-01-17T00:46:18.502Z,83.00
2023-01-17T00:49:04.190Z,83.30
2023-01-17T00:51:51.177Z,83.24
2023-01-17T00:54:36.335Z,83.31
2023-01-17T00:57:22.839Z,83.31
2023-01-17T01:00:08.324Z,83.10
2023-01-17T01:02:54.373Z,83.19
2023-01-17T01:05:39.961Z,82.84
2023-01-17T01:08:41.333Z,82.98
2023-01-17T01:11:29.631Z,83.03
2023-01-17T01:14:14.909Z,82.79
2023-01-17T01:17:00.293Z,83.04
2023-01-17T01:19:45.642Z,83.08
2023-01-17T01:22:30.821Z,82.98
2023-01-17T01:25:16.511Z,82.79
2023-01-17T01:28:02.104Z,83.03
2023-01-17T01:30:47.796Z,83.20
2023-01-17T01:33:21.161Z,83.24
2023-01-17T01:35:53.919Z,83.31
2023-01-17T01:38:23.350Z,82.91
2023-01-17T01:40:55.685Z,83.27
2023-01-17T01:43:50.329Z,82.99
2023-01-17T01:46:32.256Z,83.11
2023-01-17T01:49:19.112Z,83.04
2023-01-17T01:51:52.650Z,83.09
2023-01-17T01:54:28.407Z,83.12
2023-01-17T01:56:59.497Z,82.99
2023-01-17T01:59:26.838Z,83.05
2023-01-17T02:01:56.154Z,83.25
2023-01-17T02:04:23.506Z,83.17
2023-01-17T02:06:56.020Z,83.17
2023-01-17T02:09:23.816Z,82.96
2023-01-17T02:11:50.851Z,83.72
2023-01-17T02:14:19.433Z,82.77
2023-01-17T02:16:58.032Z,82.83
2023-01-17T02:19:39.857Z,83.06
2023-01-17T02:22:32.402Z,82.84
2023-01-17T02:25:39.188Z,82.77
2023-01-17T02:28:32.930Z,82.67
2023-01-17T02:31:09.204Z,82.74
2023-01-17T02:34:17.237Z,82.77
2023-01-17T02:36:51.300Z,82.45
2023-01-17T02:39:22.845Z,82.48
2023-01-17T02:41:56.398Z,82.47
2023-01-17T02:44:24.060Z,82.24
2023-01-17T02:46:53.772Z,82.57
2023-01-17T02:49:25.282Z,82.66
2023-01-17T02:52:13.343Z,82.68
2023-01-17T02:55:14.820Z,82.00
2023-01-17T02:57:44.261Z,82.48
2023-01-17T03:00:14.107Z,82.84
2023-01-17T03:02:51.240Z,82.56
2023-01-17T03:05:25.731Z,82.53
2023-01-17T03:07:53.856Z,82.56
2023-01-17T03:10:21.855Z,82.79
2023-01-17T03:12:48.558Z,82.78
2023-01-17T03:15:17.682Z,82.38
2023-01-17T03:17:50.738Z,82.70
2023-01-17T03:20:17.714Z,82.60
2023-01-17T03:22:44.356Z,82.71
2023-01-17T03:25:11.065Z,82.63
2023-01-17T03:27:37.737Z,82.68
2023-01-17T03:30:05.102Z,83.10
2023-01-17T03:32:31.764Z,82.60
2023-01-17T03:34:58.449Z,82.70
2023-01-17T03:37:25.249Z,82.44
2023-01-17T03:39:51.924Z,82.58
2023-01-17T03:42:18.608Z,82.62
2023-01-17T03:44:45.251Z,82.75
2023-01-17T03:47:12.448Z,82.62
2023-01-17T03:49:40.124Z,82.54
2023-01-17T03:52:07.635Z,82.60
2023-01-17T03:54:34.316Z,82.38
2023-01-17T03:57:00.970Z,82.41
2023-01-17T03:59:27.651Z,82.15
2023-01-17T04:01:54.396Z,82.38
2023-01-17T04:04:21.167Z,82.63
2023-01-17T04:06:48.111Z,82.35
2023-01-17T04:09:14.884Z,82.34
2023-01-17T04:11:41.510Z,82.29
2023-01-17T04:14:08.171Z,82.33
2023-01-17T04:16:36.338Z,82.17
2023-01-17T04:19:03.066Z,82.19
2023-01-17T04:21:29.988Z,82.32
2023-01-17T04:23:56.674Z,82.26
2023-01-17T04:26:23.414Z,82.11
2023-01-17T04:28:50.085Z,82.24
2023-01-17T04:31:17.087Z,82.28
2023-01-17T04:33:43.949Z,81.95
2023-01-17T04:36:10.792Z,82.33
2023-01-17T04:38:37.480Z,82.14
2023-01-17T04:41:04.361Z,82.20
2023-01-17T04:43:31.124Z,82.09
2023-01-17T04:45:58.253Z,82.09
2023-01-17T04:48:25.507Z,82.05
2023-01-17T04:50:52.133Z,82.17
2023-01-17T04:53:18.755Z,81.98
2023-01-17T04:55:46.485Z,81.87
2023-01-17T04:58:13.127Z,81.99
2023-01-17T05:00:39.777Z,81.84
2023-01-17T05:03:07.277Z,81.90
2023-01-17T05:05:33.978Z,81.95
2023-01-17T05:08:00.709Z,81.68
2023-01-17T05:10:27.379Z,81.75
2023-01-17T05:12:58.531Z,81.91
2023-01-17T05:15:26.571Z,82.09
2023-01-17T05:17:54.132Z,81.56
2023-01-17T05:20:22.503Z,81.72
2023-01-17T05:22:56.039Z,81.51
2023-01-17T05:25:27.903Z,81.51
2023-01-17T05:27:54.808Z,81.67
2023-01-17T05:30:22.479Z,81.40
2023-01-17T05:32:50.490Z,81.37
2023-01-17T05:35:19.780Z,81.41
2023-01-17T05:37:50.597Z,81.40
2023-01-17T05:40:21.874Z,81.25
2023-01-17T05:42:50.236Z,81.32
2023-01-17T05:45:19.888Z,81.19
2023-01-17T05:47:48.352Z,81.21
2023-01-17T05:50:18.500Z,81.27
2023-01-17T05:53:00.026Z,81.20
2023-01-17T05:55:28.194Z,80.92
2023-01-17T05:57:55.513Z,80.83
2023-01-17T06:00:23.608Z,80.63
2023-01-17T06:02:55.860Z,80.79
2023-01-17T06:05:23.359Z,80.70
2023-01-17T06:07:50.169Z,80.53
2023-01-17T06:10:19.058Z,80.82
2023-01-17T06:12:46.988Z,80.73
2023-01-17T06:15:15.624Z,80.73
2023-01-17T06:17:42.675Z,80.67
2023-01-17T06:20:10.611Z,80.37
2023-01-17T06:22:37.674Z,80.47
2023-01-17T06:25:04.686Z,80.51
2023-01-17T06:27:31.317Z,80.43
2023-01-17T06:29:58.016Z,80.45
2023-01-17T06:32:24.667Z,80.33
2023-01-17T06:34:51.315Z,80.19
2023-01-17T06:37:17.976Z,80.41
2023-01-17T06:39:44.654Z,80.18
2023-01-17T06:42:11.290Z,80.23
2023-01-17T06:44:38.131Z,80.41
2023-01-17T06:47:04.769Z,80.16
2023-01-17T06:49:31.473Z,80.30
2023-01-17T06:51:58.115Z,80.28
2023-01-17T06:54:24.853Z,80.21
2023-01-17T06:56:51.501Z,80.13
2023-01-17T06:59:18.152Z,80.20
2023-01-17T07:01:44.880Z,80.48
2023-01-17T07:04:11.613Z,80.58
2023-01-17T07:06:38.315Z,80.25
2023-01-17T07:09:05.468Z,80.62
2023-01-17T07:11:32.172Z,80.46
2023-01-17T07:13:58.858Z,80.24
2023-01-17T07:16:25.671Z,80.45
2023-01-17T07:18:53.324Z,80.37
2023-01-17T07:21:20.035Z,80.53
2023-01-17T07:23:48.220Z,80.50
2023-01-17T07:26:16.927Z,80.41
2023-01-17T07:28:43.897Z,80.59
2023-01-17T07:31:10.714Z,80.56
2023-01-17T07:33:37.770Z,80.68
2023-01-17T07:36:09.369Z,80.59
2023-01-17T07:38:43.115Z,80.58
2023-01-17T07:41:11.087Z,80.61
2023-01-17T07:43:40.472Z,80.25
2023-01-17T07:46:14.638Z,80.50
2023-01-17T07:48:44.357Z,80.64
2023-01-17T07:51:10.995Z,80.83
2023-01-17T07:53:40.664Z,80.46
2023-01-17T07:56:09.680Z,80.68
2023-01-17T07:58:36.397Z,80.63
2023-01-17T08:01:12.145Z,80.64
2023-01-17T08:03:42.407Z,80.56
2023-01-17T08:06:20.208Z,80.51
2023-01-17T08:08:53.199Z,80.78
2023-01-17T08:11:19.863Z,80.55
2023-01-17T08:13:46.772Z,80.33
2023-01-17T08:16:14.143Z,80.41
2023-01-17T08:18:41.550Z,80.12
2023-01-17T08:21:16.828Z,80.31
2023-01-17T08:23:50.081Z,80.16
2023-01-17T08:26:24.420Z,79.80
2023-01-17T08:29:01.553Z,80.03
2023-01-17T08:31:30.865Z,80.20
2023-01-17T08:33:57.771Z,80.18
2023-01-17T08:36:29.204Z,79.97
2023-01-17T08:38:56.172Z,79.84
2023-01-17T08:41:24.359Z,80.15
2023-01-17T08:43:53.860Z,79.90
2023-01-17T08:46:24.451Z,79.74
2023-01-17T08:49:02.216Z,79.79
2023-01-17T08:51:37.410Z,80.07
2023-01-17T08:54:09.936Z,79.97
2023-01-17T08:56:38.784Z,80.13
2023-01-17T08:59:09.309Z,80.08
2023-01-17T09:01:44.608Z,80.30
2023-01-17T09:04:17.352Z,79.82
2023-01-17T09:06:50.089Z,80.00
2023-01-17T09:09:19.036Z,79.97
2023-01-17T09:11:51.200Z,80.09
2023-01-17T09:14:22.196Z,80.02
2023-01-17T09:16:51.540Z,80.07
2023-01-17T09:19:26.867Z,80.07
2023-01-17T09:21:53.589Z,80.01
2023-01-17T09:24:25.498Z,80.03
2023-01-17T09:26:55.075Z,80.26
2023-01-17T09:29:21.761Z,80.61
2023-01-17T09:31:48.448Z,80.32
2023-01-17T09:34:15.515Z,80.00
2023-01-17T09:36:42.556Z,80.26
2023-01-17T09:39:10.690Z,80.05
2023-01-17T09:41:55.387Z,80.08
2023-01-17T09:44:21.985Z,80.43
2023-01-17T09:46:50.946Z,80.29
2023-01-17T09:49:35.537Z,80.33
2023-01-17T09:52:02.673Z,80.54
2023-01-17T09:54:40.084Z,80.33
2023-01-17T09:57:25.008Z,80.36
2023-01-17T10:00:09.605Z,80.22
2023-01-17T10:02:54.679Z,80.41
2023-01-17T10:05:41.812Z,80.20
2023-01-17T10:08:14.547Z,80.10
2023-01-17T10:10:47.539Z,80.23
2023-01-17T10:13:32.549Z,80.10
2023-01-17T10:16:30.250Z,80.20
2023-01-17T10:19:51.967Z,80.03
2023-01-17T10:22:31.163Z,80.03
2023-01-17T10:24:57.829Z,80.31
2023-01-17T10:27:42.200Z,80.21
2023-01-17T10:30:20.180Z,80.32
2023-01-17T10:32:50.421Z,80.10
2023-01-17T10:35:23.400Z,80.17
2023-01-17T10:37:56.849Z,80.30
2023-01-17T10:40:34.935Z,80.26
2023-01-17T10:43:19.625Z,79.95
2023-01-17T10:45:53.663Z,80.50
2023-01-17T10:48:40.228Z,80.08
2023-01-17T10:51:32.880Z,80.20
2023-01-17T10:54:05.505Z,80.20
2023-01-17T10:56:34.389Z,80.40
2023-01-17T10:59:18.148Z,80.25
2023-01-17T11:01:45.345Z,79.99
2023-01-17T11:04:23.101Z,80.22
2023-01-17T11:07:23.549Z,80.29
2023-01-17T11:09:53.372Z,80.52
2023-01-17T11:12:30.888Z,80.33
2023-01-17T11:15:02.405Z,80.54
2023-01-17T11:17:30.389Z,80.62
2023-01-17T11:20:09.068Z,80.52
2023-01-17T11:22:36.087Z,80.75
2023-01-17T11:25:02.871Z,80.86
2023-01-17T11:27:34.589Z,80.55
2023-01-17T11:30:21.988Z,81.28
2023-01-17T11:32:55.364Z,81.03
2023-01-17T11:35:27.575Z,81.28
2023-01-17T11:37:54.213Z,81.13
2023-01-17T11:40:40.528Z,81.43
2023-01-17T11:43:14.420Z,81.51
2023-01-17T11:45:41.600Z,81.43
2023-01-17T11:48:08.183Z,81.46
2023-01-17T11:50:37.736Z,81.14
2023-01-17T11:53:24.410Z,81.67
2023-01-17T11:56:03.964Z,81.24
2023-01-17T11:58:33.453Z,81.45
2023-01-17T12:01:32.480Z,81.33
2023-01-17T12:04:18.994Z,81.37
2023-01-17T12:07:03.683Z,81.94
2023-01-17T12:09:51.338Z,81.65
2023-01-17T12:13:08.811Z,81.51
2023-01-17T12:15:35.388Z,81.48
2023-01-17T12:18:26.987Z,81.95
2023-01-17T12:21:13.000Z,81.96
2023-01-17T12:23:54.109Z,82.23
2023-01-17T12:26:21.621Z,82.17
2023-01-17T12:29:07.851Z,82.32
2023-01-17T12:31:39.098Z,82.18
2023-01-17T12:34:16.369Z,82.27
2023-01-17T12:36:55.095Z,82.35
2023-01-17T12:39:29.022Z,82.29
2023-01-17T12:42:33.768Z,82.40
2023-01-17T12:45:09.792Z,82.15
2023-01-17T12:47:44.686Z,82.21
2023-01-17T12:50:34.320Z,82.31
2023-01-17T12:53:19.694Z,82.61
2023-01-17T12:56:14.628Z,82.50
2023-01-17T12:58:46.483Z,82.57
2023-01-17T13:01:23.865Z,82.64
2023-01-17T13:04:17.681Z,82.94
2023-01-17T13:07:00.034Z,82.93
2023-01-17T13:09:53.434Z,83.05
2023-01-17T13:12:22.663Z,82.72
2023-01-17T13:14:49.804Z,82.93
2023-01-17T13:17:39.642Z,82.55
2023-01-17T13:20:26.851Z,82.92
2023-01-17T13:22:57.199Z,82.82
2023-01-17T13:25:50.600Z,82.96
2023-01-17T13:28:38.750Z,83.22
2023-01-17T13:31:21.222Z,83.04
2023-01-17T13:34:08.527Z,83.39
2023-01-17T13:36:46.211Z,83.01
2023-01-17T13:39:40.727Z,83.08
2023-01-17T13:42:30.317Z,83.29
2023-01-17T13:44:58.224Z,83.13
2023-01-17T13:47:27.794Z,83.45
2023-01-17T13:49:56.752Z,82.99
2023-01-17T13:52:26.467Z,83.02
2023-01-17T13:54:54.647Z,83.30
2023-01-17T13:57:29.717Z,83.69
2023-01-17T13:59:58.138Z,83.15
2023-01-17T14:02:36.252Z,83.79
2023-01-17T14:05:18.459Z,83.33
2023-01-17T14:07:58.779Z,83.52
2023-01-17T14:10:39.385Z,83.18
2023-01-17T14:13:35.391Z,83.42
2023-01-17T14:16:22.996Z,83.49
2023-01-17T14:18:50.226Z,83.76
2023-01-17T14:21:29.071Z,83.74
2023-01-17T14:24:04.081Z,83.55
2023-01-17T14:26:43.309Z,83.34
2023-01-17T14:29:40.779Z,83.68
2023-01-17T14:32:24.387Z,83.89
2023-01-17T14:34:53.334Z,83.56
2023-01-17T14:37:32.131Z,83.36
2023-01-17T14:40:00.423Z,83.68
2023-01-17T14:42:30.330Z,83.47
2023-01-17T14:45:09.037Z,83.77
2023-01-17T14:47:39.626Z,83.77
2023-01-17T14:50:30.436Z,83.64
2023-01-17T14:53:12.853Z,83.84
2023-01-17T14:55:48.408Z,83.47
2023-01-17T14:58:42.217Z,83.78
2023-01-17T15:01:17.824Z,83.41
2023-01-17T15:03:48.044Z,84.07
2023-01-17T15:06:23.000Z,84.00
2023-01-17T15:08:54.190Z,84.10
2023-01-17T15:11:25.989Z,83.92
2023-01-17T15:13:57.502Z,84.49
2023-01-17T15:16:25.883Z,84.32
2023-01-17T15:18:53.926Z,84.10
2023-01-17T15:21:28.294Z,84.03
2023-01-17T15:23:57.900Z,84.49
2023-01-17T15:26:27.391Z,84.31
2023-01-17T15:29:06.549Z,84.35
2023-01-17T15:31:54.211Z,84.57
2023-01-17T15:34:29.839Z,84.21
2023-01-17T15:37:00.601Z,84.18
2023-01-17T15:39:33.993Z,84.47
2023-01-17T15:42:06.445Z,84.10
2023-01-17T15:44:47.989Z,84.28
2023-01-17T15:47:50.420Z,84.01
2023-01-17T15:50:20.050Z,84.68
2023-01-17T15:52:55.942Z,84.20
2023-01-17T15:55:28.831Z,84.31
2023-01-17T15:57:55.535Z,84.25
2023-01-17T16:00:37.718Z,84.70
2023-01-17T16:03:22.459Z,84.38
2023-01-17T16:05:50.031Z,84.14
2023-01-17T16:08:16.628Z,84.82
2023-01-17T16:10:44.442Z,84.30
2023-01-17T16:13:13.680Z,84.28
2023-01-17T16:15:43.497Z,84.96
2023-01-17T16:18:16.734Z,84.49
2023-01-17T16:20:48.650Z,84.49
2023-01-17T16:23:15.388Z,84.52
2023-01-17T16:25:42.225Z,84.42
2023-01-17T16:28:08.863Z,84.52
2023-01-17T16:30:36.178Z,84.49
2023-01-17T16:33:04.015Z,84.48
2023-01-17T16:35:33.481Z,84.55
2023-01-17T16:38:02.695Z,84.73
2023-01-17T16:40:32.270Z,85.01
2023-01-17T16:43:00.652Z,84.77
2023-01-17T16:45:27.639Z,84.75
2023-01-17T16:47:54.697Z,84.85
2023-01-17T16:50:23.813Z,84.89
2023-01-17T16:52:57.192Z,84.74
2023-01-17T16:55:25.591Z,84.95
2023-01-17T16:57:54.208Z,85.18
2023-01-17T17:00:25.710Z,85.06
2023-01-17T17:03:07.403Z,84.82
2023-01-17T17:05:34.284Z,85.04
2023-01-17T17:08:07.983Z,85.09
2023-01-17T17:10:34.646Z,84.58
2023-01-17T17:13:02.886Z,84.73
2023-01-17T17:15:29.925Z,85.01
2023-01-17T17:17:56.600Z,84.73
2023-01-17T17:20:25.173Z,84.76
2023-01-17T17:22:52.307Z,85.16
2023-01-17T17:25:19.273Z,84.97
2023-01-17T17:27:56.190Z,84.88
2023-01-17T17:30:22.895Z,85.16
2023-01-17T17:32:49.589Z,85.26
2023-01-17T17:35:16.303Z,85.00
2023-01-17T17:37:42.946Z,85.04
2023-01-17T17:40:10.327Z,85.31
2023-01-17T17:42:37.032Z,85.33
2023-01-17T17:45:03.915Z,84.97
2023-01-17T17:47:30.638Z,85.34
2023-01-17T17:49:57.358Z,85.26
2023-01-17T17:52:24.124Z,85.38
2023-01-17T17:54:50.770Z,85.28
2023-01-17T17:57:17.420Z,85.23
2023-01-17T17:59:44.053Z,84.98
2023-01-17T18:02:13.255Z,85.13
2023-01-17T18:04:39.960Z,85.09
2023-01-17T18:07:06.680Z,85.13
2023-01-17T18:09:33.462Z,85.03
2023-01-17T18:12:00.435Z,85.19
2023-01-17T18:14:27.246Z,85.26
2023-01-17T18:16:55.755Z,85.30
2023-01-17T18:19:25.667Z,85.19
2023-01-17T18:21:53.048Z,85.08
2023-01-17T18:24:22.380Z,85.50
2023-01-17T18:26:51.465Z,85.49
2023-01-17T18:29:20.883Z,85.41
2023-01-17T18:31:50.164Z,85.69
2023-01-17T18:34:24.222Z,85.33
2023-01-17T18:36:51.809Z,85.42
2023-01-17T18:39:21.339Z,85.35
2023-01-17T18:41:49.281Z,85.50
2023-01-17T18:44:16.006Z,85.66
2023-01-17T18:46:43.370Z,85.44
2023-01-17T18:49:16.438Z,85.33
2023-01-17T18:51:46.670Z,85.33
2023-01-17T18:54:13.659Z,85.40
2023-01-17T18:56:40.490Z,85.68
2023-01-17T18:59:07.378Z,85.64
2023-01-17T19:01:35.977Z,85.67
2023-01-17T19:04:05.304Z,85.67
2023-01-17T19:06:40.566Z,85.51
2023-01-17T19:09:08.286Z,85.72
2023-01-17T19:11:36.279Z,85.83
2023-01-17T19:14:04.026Z,85.62
2023-01-17T19:16:34.761Z,85.79
2023-01-17T19:19:04.793Z,85.95
2023-01-17T19:21:31.758Z,85.88
2023-01-17T19:23:59.417Z,86.13
2023-01-17T19:26:27.574Z,85.87
2023-01-17T19:28:56.367Z,85.83
2023-01-17T19:31:35.968Z,85.78
2023-01-17T19:34:02.757Z,85.87
2023-01-17T19:36:34.454Z,85.82
2023-01-17T19:39:05.601Z,86.25
2023-01-17T19:41:35.308Z,86.07
2023-01-17T19:44:07.262Z,86.10
2023-01-17T19:46:34.944Z,86.15
2023-01-17T19:49:02.676Z,85.92
2023-01-17T19:51:29.950Z,86.00
2023-01-17T19:53:59.894Z,85.90
2023-01-17T19:56:27.703Z,86.12
2023-01-17T19:58:54.587Z,86.04
2023-01-17T20:01:25.316Z,85.91
2023-01-17T20:03:52.528Z,86.02
2023-01-17T20:06:21.972Z,86.29
2023-01-17T20:08:48.931Z,86.26
2023-01-17T20:11:21.276Z,86.44
2023-01-17T20:13:50.918Z,86.12
2023-01-17T20:16:18.309Z,86.16
2023-01-17T20:18:45.786Z,86.09
2023-01-17T20:21:18.444Z,85.96
2023-01-17T20:23:50.124Z,86.00
2023-01-17T20:26:36.979Z,86.24
2023-01-17T20:29:07.462Z,86.08
2023-01-17T20:31:38.154Z,85.75
2023-01-17T20:34:06.300Z,86.01
2023-01-17T20:36:33.260Z,85.88
2023-01-17T20:39:00.942Z,85.90
2023-01-17T20:41:33.802Z,85.91
2023-01-17T20:44:01.864Z,85.97
2023-01-17T20:46:40.410Z,85.88
2023-01-17T20:49:16.074Z,85.99
2023-01-17T20:51:44.466Z,86.04
2023-01-17T20:54:14.462Z,85.92
2023-01-17T20:56:41.771Z,86.41
2023-01-17T20:59:13.050Z,86.03
2023-01-17T21:01:39.930Z,85.84
2023-01-17T21:04:10.183Z,86.08
2023-01-17T21:06:39.742Z,86.19
2023-01-17T21:09:08.731Z,86.09
2023-01-17T21:11:37.000Z,85.85
2023-01-17T21:14:05.961Z,86.26
2023-01-17T21:16:34.233Z,86.12
2023-01-17T21:19:01.934Z,86.04
2023-01-17T21:21:29.625Z,86.06
2023-01-17T21:23:59.140Z,86.30
2023-01-17T21:26:28.230Z,86.19
2023-01-17T21:28:55.435Z,86.27
2023-01-17T21:31:25.910Z,85.88
2023-01-17T21:34:01.417Z,86.26
2023-01-17T21:36:30.862Z,86.47
2023-01-17T21:38:59.257Z,86.08
2023-01-17T21:41:28.795Z,86.07
2023-01-17T21:43:57.349Z,86.59
2023-01-17T21:46:24.745Z,85.95
2023-01-17T21:48:51.438Z,86.41
2023-01-17T21:51:19.651Z,86.35
2023-01-17T21:53:46.412Z,86.29
2023-01-17T21:56:32.862Z,86.41
2023-01-17T21:59:01.902Z,86.47
2023-01-17T22:01:32.303Z,85.97
2023-01-17T22:04:02.868Z,86.39
2023-01-17T22:06:43.465Z,86.22
2023-01-17T22:09:12.586Z,86.49
2023-01-17T22:11:44.624Z,86.19
2023-01-17T22:14:14.472Z,86.52
2023-01-17T22:16:41.181Z,86.26
2023-01-17T22:19:12.495Z,86.28
2023-01-17T22:21:39.151Z,86.52
2023-01-17T22:24:08.934Z,86.47
2023-01-17T22:26:41.992Z,86.26
2023-01-17T22:29:13.092Z,86.61
2023-01-17T22:31:39.844Z,86.41
2023-01-17T22:34:06.476Z,86.50
2023-01-17T22:36:35.417Z,86.54
2023-01-17T22:39:02.144Z,86.11
2023-01-17T22:41:31.285Z,86.39
2023-01-17T22:43:59.823Z,86.44
2023-01-17T22:46:29.585Z,86.54
2023-01-17T22:49:01.061Z,86.79
2023-01-17T22:51:32.011Z,86.55
2023-01-17T22:54:03.559Z,86.72
2023-01-17T22:56:32.781Z,86.72
2023-01-17T22:59:01.074Z,86.56
2023-01-17T23:01:36.322Z,86.38
2023-01-17T23:04:05.038Z,86.35
2023-01-17T23:06:34.477Z,86.68
2023-01-17T23:09:10.006Z,86.37
2023-01-17T23:11:39.647Z,86.71
2023-01-17T23:14:24.825Z,86.26
2023-01-17T23:17:18.525Z,86.21
2023-01-17T23:19:51.140Z,86.50
2023-01-17T23:22:29.088Z,86.45
2023-01-17T23:25:06.547Z,86.18
2023-01-17T23:28:00.699Z,86.22
2023-01-17T23:30:54.633Z,86.03
2023-01-17T23:33:21.279Z,86.12
2023-01-17T23:35:47.992Z,85.94
2023-01-17T23:38:33.987Z,86.43
2023-01-17T23:41:24.565Z,86.58
2023-01-17T23:43:56.826Z,86.21
2023-01-17T23:46:25.431Z,86.57
2023-01-17T23:48:52.286Z,86.13
2023-01-17T23:51:19.021Z,86.57
2023-01-17T23:53:45.689Z,86.23
2023-01-17T23:56:21.798Z,86.31
2023-01-17T23:58:49.051Z,86.08
